sensor_id;sensor_type;location;lat;lon;timestamp;pressure;altitude;pressure_sealevel;temperature;humidity
46412;BME280;32113;42.012;24.870;2023-03-23T00:00:08;99009.00;;;12.90;71.43
46412;BME280;32113;42.012;24.870;2023-03-23T00:02:34;99011.56;;;12.92;70.92
46412;BME280;32113;42.012;24.870;2023-03-23T00:05:02;99014.13;;;12.92;71.03
46412;BME280;32113;42.012;24.870;2023-03-23T00:07:28;99009.06;;;12.88;71.59
46412;BME280;32113;42.012;24.870;2023-03-23T00:09:55;99012.41;;;12.92;70.94
46412;BME280;32113;42.012;24.870;2023-03-23T00:12:25;99008.97;;;12.93;70.88
46412;BME280;32113;42.012;24.870;2023-03-23T00:15:05;99005.50;;;12.94;71.09
46412;BME280;32113;42.012;24.870;2023-03-23T00:17:32;99002.09;;;12.94;71.42
46412;BME280;32113;42.012;24.870;2023-03-23T00:20:02;99004.84;;;12.84;71.83
46412;BME280;32113;42.012;24.870;2023-03-23T00:22:30;99001.44;;;12.82;71.90
46412;BME280;32113;42.012;24.870;2023-03-23T00:24:56;98997.19;;;12.81;71.99
46412;BME280;32113;42.012;24.870;2023-03-23T00:27:22;99002.28;;;12.84;71.33
46412;BME280;32113;42.012;24.870;2023-03-23T00:29:49;99003.13;;;12.83;70.77
46412;BME280;32113;42.012;24.870;2023-03-23T00:32:18;98999.75;;;12.81;70.39
46412;BME280;32113;42.012;24.870;2023-03-23T00:34:45;98990.44;;;12.75;70.90
46412;BME280;32113;42.012;24.870;2023-03-23T00:37:13;98990.63;;;12.66;70.69
46412;BME280;32113;42.012;24.870;2023-03-23T00:39:41;98994.19;;;12.59;71.67
46412;BME280;32113;42.012;24.870;2023-03-23T00:42:09;98992.50;;;12.58;72.50
46412;BME280;32113;42.012;24.870;2023-03-23T00:44:35;98991.72;;;12.53;72.02
46412;BME280;32113;42.012;24.870;2023-03-23T00:47:01;98993.38;;;12.57;72.66
46412;BME280;32113;42.012;24.870;2023-03-23T00:49:26;98995.94;;;12.57;73.02
46412;BME280;32113;42.012;24.870;2023-03-23T00:51:54;98995.03;;;12.59;72.81
46412;BME280;32113;42.012;24.870;2023-03-23T00:54:20;98990.75;;;12.60;72.80
46412;BME280;32113;42.012;24.870;2023-03-23T00:56:46;98990.00;;;12.53;72.52
46412;BME280;32113;42.012;24.870;2023-03-23T00:59:12;98989.09;;;12.56;73.31
46412;BME280;32113;42.012;24.870;2023-03-23T01:01:38;98980.50;;;12.57;73.10
46412;BME280;32113;42.012;24.870;2023-03-23T01:04:04;98966.81;;;12.56;72.86
46412;BME280;32113;42.012;24.870;2023-03-23T01:06:35;98972.84;;;12.54;72.80
46412;BME280;32113;42.012;24.870;2023-03-23T01:09:05;98980.53;;;12.55;73.07
46412;BME280;32113;42.012;24.870;2023-03-23T01:11:31;98978.78;;;12.57;72.18
46412;BME280;32113;42.012;24.870;2023-03-23T01:13:57;98981.25;;;12.62;72.38
46412;BME280;32113;42.012;24.870;2023-03-23T01:16:23;98977.88;;;12.60;73.34
46412;BME280;32113;42.012;24.870;2023-03-23T01:18:49;98977.81;;;12.63;72.85
46412;BME280;32113;42.012;24.870;2023-03-23T01:21:16;98979.66;;;12.58;72.64
46412;BME280;32113;42.012;24.870;2023-03-23T01:23:43;98985.59;;;12.60;72.65
46412;BME280;32113;42.012;24.870;2023-03-23T01:26:11;98986.38;;;12.64;72.36
46412;BME280;32113;42.012;24.870;2023-03-23T01:28:37;98972.75;;;12.58;72.15
46412;BME280;32113;42.012;24.870;2023-03-23T01:31:09;98984.81;;;12.56;72.27
46412;BME280;32113;42.012;24.870;2023-03-23T01:33:38;98986.63;;;12.51;71.96
46412;BME280;32113;42.012;24.870;2023-03-23T01:36:10;98991.81;;;12.50;72.29
46412;BME280;32113;42.012;24.870;2023-03-23T01:38:36;98989.25;;;12.48;72.46
46412;BME280;32113;42.012;24.870;2023-03-23T01:41:03;98991.06;;;12.44;72.66
46412;BME280;32113;42.012;24.870;2023-03-23T01:43:29;98995.28;;;12.47;72.59
46412;BME280;32113;42.012;24.870;2023-03-23T01:45:55;99002.13;;;12.48;73.32
46412;BME280;32113;42.012;24.870;2023-03-23T01:48:23;98998.69;;;12.47;73.35
46412;BME280;32113;42.012;24.870;2023-03-23T01:51:01;98997.75;;;12.52;72.58
46412;BME280;32113;42.012;24.870;2023-03-23T01:53:37;98998.75;;;12.44;73.38
46412;BME280;32113;42.012;24.870;2023-03-23T01:56:06;99003.97;;;12.40;73.27
46412;BME280;32113;42.012;24.870;2023-03-23T01:58:33;98994.56;;;12.40;73.46
46412;BME280;32113;42.012;24.870;2023-03-23T02:01:04;98997.13;;;12.40;73.25
46412;BME280;32113;42.012;24.870;2023-03-23T02:03:31;98996.22;;;12.43;72.84
46412;BME280;32113;42.012;24.870;2023-03-23T02:05:58;98998.25;;;12.25;73.61
46412;BME280;32113;42.012;24.870;2023-03-23T02:08:24;98996.56;;;12.24;74.55
46412;BME280;32113;42.012;24.870;2023-03-23T02:10:53;98988.22;;;12.11;74.78
46412;BME280;32113;42.012;24.870;2023-03-23T02:13:18;98995.06;;;12.11;75.08
46412;BME280;32113;42.012;24.870;2023-03-23T02:18:30;98994.16;;;12.15;75.48
46412;BME280;32113;42.012;24.870;2023-03-23T02:23:58;98994.91;;;12.20;75.23
46412;BME280;32113;42.012;24.870;2023-03-23T02:27:14;98996.75;;;12.13;75.42
46412;BME280;32113;42.012;24.870;2023-03-23T02:32:26;98994.97;;;12.17;75.43
46412;BME280;32113;42.012;24.870;2023-03-23T02:35:03;99002.53;;;12.25;74.83
46412;BME280;32113;42.012;24.870;2023-03-23T02:37:45;98999.97;;;12.25;74.63
46412;BME280;32113;42.012;24.870;2023-03-23T02:40:17;98999.19;;;12.21;75.48
46412;BME280;32113;42.012;24.870;2023-03-23T02:42:47;98999.16;;;12.22;74.92
46412;BME280;32113;42.012;24.870;2023-03-23T02:45:15;98999.97;;;12.25;75.04
46412;BME280;32113;42.012;24.870;2023-03-23T02:47:43;99003.38;;;12.25;74.76
46412;BME280;32113;42.012;24.870;2023-03-23T02:50:14;99004.31;;;12.21;74.65
46412;BME280;32113;42.012;24.870;2023-03-23T02:52:43;99009.38;;;12.27;74.57
46412;BME280;32113;42.012;24.870;2023-03-23T02:55:09;99003.38;;;12.25;74.76
46412;BME280;32113;42.012;24.870;2023-03-23T02:57:37;99006.75;;;12.29;74.24
46412;BME280;32113;42.012;24.870;2023-03-23T03:00:07;99003.28;;;12.31;74.21
46412;BME280;32113;42.012;24.870;2023-03-23T03:02:42;99005.81;;;12.33;73.73
46412;BME280;32113;42.012;24.870;2023-03-23T03:07:47;99014.41;;;12.32;74.54
46412;BME280;32113;42.012;24.870;2023-03-23T03:10:19;99008.25;;;12.41;73.52
46412;BME280;32113;42.012;24.870;2023-03-23T03:12:59;99016.84;;;12.40;73.44
46412;BME280;32113;42.012;24.870;2023-03-23T03:15:42;99017.72;;;12.39;73.34
46412;BME280;32113;42.012;24.870;2023-03-23T03:20:48;99025.91;;;12.14;74.48
46412;BME280;32113;42.012;24.870;2023-03-23T03:23:16;99026.81;;;12.09;74.61
46412;BME280;32113;42.012;24.870;2023-03-23T03:25:43;99029.31;;;12.13;74.52
46412;BME280;32113;42.012;24.870;2023-03-23T03:28:17;99030.28;;;12.07;74.59
46412;BME280;32113;42.012;24.870;2023-03-23T03:30:49;99024.41;;;11.97;75.32
46412;BME280;32113;42.012;24.870;2023-03-23T03:33:16;99025.34;;;11.91;76.04
46412;BME280;32113;42.012;24.870;2023-03-23T03:35:43;99033.94;;;11.90;76.25
46412;BME280;32113;42.012;24.870;2023-03-23T03:38:11;99042.56;;;11.86;75.61
46412;BME280;32113;42.012;24.870;2023-03-23T03:40:36;99031.50;;;11.82;76.04
46412;BME280;32113;42.012;24.870;2023-03-23T03:43:03;99037.44;;;11.85;76.50
46412;BME280;32113;42.012;24.870;2023-03-23T03:45:28;99047.81;;;11.81;76.59
46412;BME280;32113;42.012;24.870;2023-03-23T03:47:54;99047.72;;;11.86;76.48
46412;BME280;32113;42.012;24.870;2023-03-23T03:50:19;99037.41;;;11.88;76.41
46412;BME280;32113;42.012;24.870;2023-03-23T03:52:45;99047.63;;;11.92;75.77
46412;BME280;32113;42.012;24.870;2023-03-23T03:55:11;99050.31;;;11.85;76.50
46412;BME280;32113;42.012;24.870;2023-03-23T03:57:36;99053.69;;;11.90;76.03
46412;BME280;32113;42.012;24.870;2023-03-23T04:00:03;99057.09;;;11.90;76.33
46412;BME280;32113;42.012;24.870;2023-03-23T04:02:43;99059.63;;;11.93;76.38
46412;BME280;32113;42.012;24.870;2023-03-23T04:05:10;99062.94;;;12.00;75.82
46412;BME280;32113;42.012;24.870;2023-03-23T04:07:36;99053.56;;;11.96;75.71
46412;BME280;32113;42.012;24.870;2023-03-23T04:10:07;99062.94;;;12.00;75.63
46412;BME280;32113;42.012;24.870;2023-03-23T04:12:33;99055.25;;;11.97;75.83
46412;BME280;32113;42.012;24.870;2023-03-23T04:15:00;99058.69;;;11.98;75.31
46412;BME280;32113;42.012;24.870;2023-03-23T04:17:25;99057.84;;;11.95;75.71
46412;BME280;32113;42.012;24.870;2023-03-23T04:19:54;99059.56;;;11.96;76.11
46412;BME280;32113;42.012;24.870;2023-03-23T04:22:25;99061.28;;;11.98;75.37
46412;BME280;32113;42.012;24.870;2023-03-23T04:24:56;99057.88;;;11.94;76.31
46412;BME280;32113;42.012;24.870;2023-03-23T04:27:27;99066.44;;;11.94;75.33
46412;BME280;32113;42.012;24.870;2023-03-23T04:29:54;99058.91;;;11.83;75.71
46412;BME280;32113;42.012;24.870;2023-03-23T04:32:20;99064.06;;;11.82;75.81
46412;BME280;32113;42.012;24.870;2023-03-23T04:34:46;99054.75;;;11.75;75.70
46412;BME280;32113;42.012;24.870;2023-03-23T04:37:11;99058.22;;;11.72;75.77
46412;BME280;32113;42.012;24.870;2023-03-23T04:39:39;99063.50;;;11.63;76.36
46412;BME280;32113;42.012;24.870;2023-03-23T04:42:05;99054.88;;;11.67;75.97
46412;BME280;32113;42.012;24.870;2023-03-23T04:44:30;99060.84;;;11.67;75.96
46412;BME280;32113;42.012;24.870;2023-03-23T04:47:00;99061.75;;;11.65;76.64
46412;BME280;32113;42.012;24.870;2023-03-23T04:49:26;99061.75;;;11.63;76.95
46412;BME280;32113;42.012;24.870;2023-03-23T04:51:52;99060.91;;;11.64;76.77
46412;BME280;32113;42.012;24.870;2023-03-23T04:54:17;99066.03;;;11.66;76.24
46412;BME280;32113;42.012;24.870;2023-03-23T04:56:43;99062.56;;;11.68;76.60
46412;BME280;32113;42.012;24.870;2023-03-23T04:59:08;99062.53;;;11.70;76.44
46412;BME280;32113;42.012;24.870;2023-03-23T05:01:34;99064.16;;;11.76;76.47
46412;BME280;32113;42.012;24.870;2023-03-23T05:04:02;99059.06;;;11.73;76.00
46412;BME280;32113;42.012;24.870;2023-03-23T05:06:27;99058.97;;;11.79;76.01
46412;BME280;32113;42.012;24.870;2023-03-23T05:08:52;99059.88;;;11.78;76.53
46412;BME280;32113;42.012;24.870;2023-03-23T05:11:18;99070.91;;;11.83;76.52
46412;BME280;32113;42.012;24.870;2023-03-23T05:13:43;99072.59;;;11.86;75.88
46412;BME280;32113;42.012;24.870;2023-03-23T05:16:09;99062.38;;;11.79;75.17
46412;BME280;32113;42.012;24.870;2023-03-23T05:18:35;99066.69;;;11.79;75.19
46412;BME280;32113;42.012;24.870;2023-03-23T05:21:02;99067.63;;;11.73;75.81
46412;BME280;32113;42.012;24.870;2023-03-23T05:23:28;99071.91;;;11.73;76.31
46412;BME280;32113;42.012;24.870;2023-03-23T05:25:56;99071.84;;;11.77;76.25
46412;BME280;32113;42.012;24.870;2023-03-23T05:28:22;99081.28;;;11.77;75.25
46412;BME280;32113;42.012;24.870;2023-03-23T05:30:48;99082.13;;;11.79;75.67
46412;BME280;32113;42.012;24.870;2023-03-23T05:33:14;99088.03;;;11.86;75.54
46412;BME280;32113;42.012;24.870;2023-03-23T05:35:39;99091.38;;;11.91;75.18
46412;BME280;32113;42.012;24.870;2023-03-23T05:38:05;99091.25;;;11.97;74.89
46412;BME280;32113;42.012;24.870;2023-03-23T05:40:30;99085.16;;;12.04;75.16
46412;BME280;32113;42.012;24.870;2023-03-23T05:42:56;99091.03;;;12.13;74.98
46412;BME280;32113;42.012;24.870;2023-03-23T05:45:25;99087.41;;;12.26;74.03
46412;BME280;32113;42.012;24.870;2023-03-23T05:47:51;99089.81;;;12.35;73.34
46412;BME280;32113;42.012;24.870;2023-03-23T05:50:17;99093.22;;;12.38;72.52
46412;BME280;32113;42.012;24.870;2023-03-23T05:52:42;99097.34;;;12.46;73.22
46412;BME280;32113;42.012;24.870;2023-03-23T05:55:08;99102.44;;;12.51;72.73
46412;BME280;32113;42.012;24.870;2023-03-23T05:57:34;99105.66;;;12.63;72.47
46412;BME280;32113;42.012;24.870;2023-03-23T06:00:00;99109.88;;;12.67;72.20
46412;BME280;32113;42.012;24.870;2023-03-23T06:02:30;99117.56;;;12.70;72.00
46412;BME280;32113;42.012;24.870;2023-03-23T06:04:56;99121.69;;;12.79;71.42
46412;BME280;32113;42.012;24.870;2023-03-23T06:07:23;99124.28;;;12.77;71.43
46412;BME280;32113;42.012;24.870;2023-03-23T06:09:49;99125.13;;;12.78;72.01
46412;BME280;32113;42.012;24.870;2023-03-23T06:12:16;99129.53;;;12.72;71.99
46412;BME280;32113;42.012;24.870;2023-03-23T06:14:45;99124.41;;;12.69;71.62
46412;BME280;32113;42.012;24.870;2023-03-23T06:17:11;99135.75;;;12.60;71.63
46412;BME280;32113;42.012;24.870;2023-03-23T06:19:37;99130.63;;;12.57;71.59
46412;BME280;32113;42.012;24.870;2023-03-23T06:22:02;99136.69;;;12.53;72.36
46412;BME280;32113;42.012;24.870;2023-03-23T06:24:28;99127.28;;;12.52;72.77
46412;BME280;32113;42.012;24.870;2023-03-23T06:26:54;99125.53;;;12.53;72.64
46412;BME280;32113;42.012;24.870;2023-03-23T06:29:20;99130.63;;;12.59;72.73
46412;BME280;32113;42.012;24.870;2023-03-23T06:31:52;99128.06;;;12.57;72.45
46412;BME280;32113;42.012;24.870;2023-03-23T06:34:19;99127.16;;;12.60;72.83
46412;BME280;32113;42.012;24.870;2023-03-23T06:36:44;99130.50;;;12.64;73.15
46412;BME280;32113;42.012;24.870;2023-03-23T06:39:10;99129.53;;;12.71;72.86
46412;BME280;32113;42.012;24.870;2023-03-23T06:41:36;99133.75;;;12.77;72.17
46412;BME280;32113;42.012;24.870;2023-03-23T06:44:01;99131.84;;;12.86;72.30
46412;BME280;32113;42.012;24.870;2023-03-23T06:46:27;99138.84;;;12.78;71.10
46412;BME280;32113;42.012;24.870;2023-03-23T06:48:53;99150.00;;;12.79;71.98
46412;BME280;32113;42.012;24.870;2023-03-23T06:51:19;99150.03;;;12.75;72.12
46412;BME280;32113;42.012;24.870;2023-03-23T06:53:45;99148.66;;;12.57;72.28
46412;BME280;32113;42.012;24.870;2023-03-23T06:56:10;99148.69;;;12.54;73.35
46412;BME280;32113;42.012;24.870;2023-03-23T06:58:38;99142.59;;;12.60;72.96
46412;BME280;32113;42.012;24.870;2023-03-23T07:01:03;99149.34;;;12.67;72.51
46412;BME280;32113;42.012;24.870;2023-03-23T07:03:29;99144.91;;;12.74;72.86
46412;BME280;32113;42.012;24.870;2023-03-23T07:05:56;99144.72;;;12.86;72.45
46412;BME280;32113;42.012;24.870;2023-03-23T07:08:22;99140.34;;;12.90;71.62
46412;BME280;32113;42.012;24.870;2023-03-23T07:10:51;99141.91;;;12.99;71.10
46412;BME280;32113;42.012;24.870;2023-03-23T07:13:18;99146.91;;;13.07;70.70
46412;BME280;32113;42.012;24.870;2023-03-23T07:15:43;99148.47;;;13.14;70.43
46412;BME280;32113;42.012;24.870;2023-03-23T07:18:09;99152.66;;;13.20;70.18
46412;BME280;32113;42.012;24.870;2023-03-23T07:20:35;99155.94;;;13.28;70.29
46412;BME280;32113;42.012;24.870;2023-03-23T07:23:01;99153.28;;;13.33;69.55
46412;BME280;32113;42.012;24.870;2023-03-23T07:25:27;99154.06;;;13.38;69.07
46412;BME280;32113;42.012;24.870;2023-03-23T07:27:53;99155.97;;;13.26;69.63
46412;BME280;32113;42.012;24.870;2023-03-23T07:30:18;99154.28;;;13.25;70.29
46412;BME280;32113;42.012;24.870;2023-03-23T07:32:44;99157.78;;;13.23;69.22
46412;BME280;32113;42.012;24.870;2023-03-23T07:35:10;99161.19;;;13.23;69.53
46412;BME280;32113;42.012;24.870;2023-03-23T07:37:35;99164.63;;;13.24;69.64
46412;BME280;32113;42.012;24.870;2023-03-23T07:40:02;99159.31;;;13.32;69.60
46412;BME280;32113;42.012;24.870;2023-03-23T07:42:36;99166.94;;;13.38;69.05
46412;BME280;32113;42.012;24.870;2023-03-23T07:45:02;99163.44;;;13.40;70.34
46412;BME280;32113;42.012;24.870;2023-03-23T07:47:27;99171.66;;;13.60;70.83
46412;BME280;32113;42.012;24.870;2023-03-23T07:49:52;99175.75;;;13.70;69.49
46412;BME280;32113;42.012;24.870;2023-03-23T07:52:18;99170.47;;;13.76;69.20
46412;BME280;32113;42.012;24.870;2023-03-23T07:54:44;99178.00;;;13.86;67.80
46412;BME280;32113;42.012;24.870;2023-03-23T07:57:09;99171.03;;;13.91;66.74
46412;BME280;32113;42.012;24.870;2023-03-23T07:59:35;99174.41;;;13.93;66.35
46412;BME280;32113;42.012;24.870;2023-03-23T08:02:01;99171.63;;;14.02;65.72
46412;BME280;32113;42.012;24.870;2023-03-23T08:04:26;99175.03;;;14.04;66.04
46412;BME280;32113;42.012;24.870;2023-03-23T08:06:52;99175.78;;;14.08;65.36
46412;BME280;32113;42.012;24.870;2023-03-23T08:09:17;99176.38;;;14.19;65.61
46412;BME280;32113;42.012;24.870;2023-03-23T08:11:43;99177.94;;;14.27;65.73
46412;BME280;32113;42.012;24.870;2023-03-23T08:14:08;99176.91;;;14.34;65.98
46412;BME280;32113;42.012;24.870;2023-03-23T08:16:34;99185.41;;;14.39;65.40
46412;BME280;32113;42.012;24.870;2023-03-23T08:18:59;99180.97;;;14.44;66.07
46412;BME280;32113;42.012;24.870;2023-03-23T08:21:25;99175.66;;;14.51;65.17
46412;BME280;32113;42.012;24.870;2023-03-23T08:23:51;99170.38;;;14.55;65.04
46412;BME280;32113;42.012;24.870;2023-03-23T08:26:17;99170.94;;;14.68;64.85
46412;BME280;32113;42.012;24.870;2023-03-23T08:28:43;99172.41;;;14.79;63.34
46412;BME280;32113;42.012;24.870;2023-03-23T08:31:11;99166.34;;;14.80;63.31
46412;BME280;32113;42.012;24.870;2023-03-23T08:33:37;99168.63;;;14.92;63.46
46412;BME280;32113;42.012;24.870;2023-03-23T08:36:03;99167.78;;;14.92;62.71
46412;BME280;32113;42.012;24.870;2023-03-23T08:38:29;99170.09;;;15.01;62.97
46412;BME280;32113;42.012;24.870;2023-03-23T08:41:00;99164.41;;;14.90;62.19
46412;BME280;32113;42.012;24.870;2023-03-23T08:43:26;99166.94;;;14.91;63.97
46412;BME280;32113;42.012;24.870;2023-03-23T08:45:52;99158.84;;;15.04;62.86
46412;BME280;32113;42.012;24.870;2023-03-23T08:48:19;99161.16;;;15.15;61.94
46412;BME280;32113;42.012;24.870;2023-03-23T08:50:44;99157.31;;;15.28;61.37
46412;BME280;32113;42.012;24.870;2023-03-23T08:53:10;99154.53;;;15.36;60.57
46412;BME280;32113;42.012;24.870;2023-03-23T08:55:36;99165.69;;;15.38;60.47
46412;BME280;32113;42.012;24.870;2023-03-23T08:58:03;99160.16;;;15.50;59.39
46412;BME280;32113;42.012;24.870;2023-03-23T09:00:29;99160.09;;;15.52;57.61
46412;BME280;32113;42.012;24.870;2023-03-23T09:02:55;99161.28;;;15.70;58.67
46412;BME280;32113;42.012;24.870;2023-03-23T09:05:24;99159.53;;;16.01;57.74
46412;BME280;32113;42.012;24.870;2023-03-23T09:07:51;99159.44;;;16.33;56.39
46412;BME280;32113;42.012;24.870;2023-03-23T09:10:18;99159.56;;;16.55;54.30
46412;BME280;32113;42.012;24.870;2023-03-23T09:12:44;99160.38;;;16.83;54.65
46412;BME280;32113;42.012;24.870;2023-03-23T09:15:14;99164.91;;;17.01;53.13
46412;BME280;32113;42.012;24.870;2023-03-23T09:17:44;99162.97;;;17.08;52.67
46412;BME280;32113;42.012;24.870;2023-03-23T09:20:12;99162.84;;;17.13;53.57
46412;BME280;32113;42.012;24.870;2023-03-23T09:22:39;99175.00;;;17.11;52.67
46412;BME280;32113;42.012;24.870;2023-03-23T09:25:06;99162.94;;;17.10;53.33
46412;BME280;32113;42.012;24.870;2023-03-23T09:27:32;99169.16;;;17.29;52.74
46412;BME280;32113;42.012;24.870;2023-03-23T09:29:58;99161.50;;;17.50;52.32
46412;BME280;32113;42.012;24.870;2023-03-23T09:32:24;99157.31;;;17.70;51.69
46412;BME280;32113;42.012;24.870;2023-03-23T09:34:49;99163.56;;;17.86;49.38
46412;BME280;32113;42.012;24.870;2023-03-23T09:37:16;99156.09;;;18.01;48.73
46412;BME280;32113;42.012;24.870;2023-03-23T09:39:41;99155.00;;;18.29;49.10
46412;BME280;32113;42.012;24.870;2023-03-23T09:48:00;99145.69;;;18.87;51.13
46412;BME280;32113;42.012;24.870;2023-03-23T09:50:30;99145.16;;;19.00;48.73
46412;BME280;32113;42.012;24.870;2023-03-23T09:53:01;99140.38;;;19.11;49.17
46412;BME280;32113;42.012;24.870;2023-03-23T09:55:28;99134.31;;;19.11;50.24
46412;BME280;32113;42.012;24.870;2023-03-23T09:58:03;99134.13;;;18.95;46.85
46412;BME280;32113;42.012;24.870;2023-03-23T10:00:40;99136.53;;;18.78;45.28
46412;BME280;32113;42.012;24.870;2023-03-23T10:03:16;99134.72;;;18.60;45.87
46412;BME280;32113;42.012;24.870;2023-03-23T10:05:52;99137.25;;;18.61;47.07
46412;BME280;32113;42.012;24.870;2023-03-23T10:16:26;99127.50;;;18.67;44.82
46412;BME280;32113;42.012;24.870;2023-03-23T10:21:35;99125.03;;;18.22;44.75
46412;BME280;32113;42.012;24.870;2023-03-23T10:24:07;99128.97;;;18.10;44.29
46412;BME280;32113;42.012;24.870;2023-03-23T10:29:14;99129.63;;;17.93;45.31
46412;BME280;32113;42.012;24.870;2023-03-23T10:32:08;99127.13;;;17.90;46.73
46412;BME280;32113;42.012;24.870;2023-03-23T10:34:45;99125.84;;;18.00;47.72
46412;BME280;32113;42.012;24.870;2023-03-23T10:37:18;99120.38;;;18.08;47.57
46412;BME280;32113;42.012;24.870;2023-03-23T10:39:47;99114.88;;;18.16;47.07
46412;BME280;32113;42.012;24.870;2023-03-23T10:42:22;99104.06;;;18.47;47.47
46412;BME280;32113;42.012;24.870;2023-03-23T10:44:48;99106.88;;;18.63;45.98
46412;BME280;32113;42.012;24.870;2023-03-23T10:47:13;99102.44;;;18.65;46.14
46412;BME280;32113;42.012;24.870;2023-03-23T10:49:47;99099.16;;;18.81;43.85
46412;BME280;32113;42.012;24.870;2023-03-23T10:52:20;99098.91;;;18.87;42.61
46412;BME280;32113;42.012;24.870;2023-03-23T10:54:56;99097.69;;;18.75;42.35
46412;BME280;32113;42.012;24.870;2023-03-23T10:57:25;99100.09;;;18.80;42.07
46412;BME280;32113;42.012;24.870;2023-03-23T10:59:58;99103.31;;;18.85;42.07
46412;BME280;32113;42.012;24.870;2023-03-23T11:02:24;99098.50;;;18.97;41.38
46412;BME280;32113;42.012;24.870;2023-03-23T11:05:05;99101.75;;;19.02;40.08
46412;BME280;32113;42.012;24.870;2023-03-23T11:07:34;99095.91;;;18.97;39.84
46412;BME280;32113;42.012;24.870;2023-03-23T11:10:23;99096.28;;;19.08;41.14
46412;BME280;32113;42.012;24.870;2023-03-23T11:12:49;99083.34;;;19.07;39.46
46412;BME280;32113;42.012;24.870;2023-03-23T11:15:29;99088.16;;;18.95;39.52
46412;BME280;32113;42.012;24.870;2023-03-23T11:18:08;99089.63;;;18.82;38.96
46412;BME280;32113;42.012;24.870;2023-03-23T11:20:41;99084.06;;;18.89;38.72
46412;BME280;32113;42.012;24.870;2023-03-23T11:23:29;99079.38;;;18.98;38.72
46412;BME280;32113;42.012;24.870;2023-03-23T11:29:21;99072.28;;;19.22;38.57
46412;BME280;32113;42.012;24.870;2023-03-23T11:31:51;99073.22;;;19.58;37.70
46412;BME280;32113;42.012;24.870;2023-03-23T11:34:24;99066.44;;;19.73;38.87
46412;BME280;32113;42.012;24.870;2023-03-23T11:36:57;99061.50;;;19.86;38.08
46412;BME280;32113;42.012;24.870;2023-03-23T11:42:24;99063.38;;;20.02;37.39
46412;BME280;32113;42.012;24.870;2023-03-23T11:44:54;99062.91;;;20.11;37.29
46412;BME280;32113;42.012;24.870;2023-03-23T11:50:32;99057.28;;;19.83;38.82
46412;BME280;32113;42.012;24.870;2023-03-23T11:55:33;99052.91;;;19.28;39.26
46412;BME280;32113;42.012;24.870;2023-03-23T11:58:09;99057.34;;;19.07;39.10
46412;BME280;32113;42.012;24.870;2023-03-23T12:00:44;99049.16;;;18.76;39.95
46412;BME280;32113;42.012;24.870;2023-03-23T12:03:13;99053.53;;;18.75;40.25
46412;BME280;32113;42.012;24.870;2023-03-23T12:08:35;99052.09;;;18.68;39.78
46412;BME280;32113;42.012;24.870;2023-03-23T12:41:51;99055.22;;;18.35;43.36
46412;BME280;32113;42.012;24.870;2023-03-23T12:44:26;99049.59;;;18.46;44.44
46412;BME280;32113;42.012;24.870;2023-03-23T12:47:07;99047.91;;;18.45;43.29
46412;BME280;32113;42.012;24.870;2023-03-23T12:49:49;99046.22;;;18.23;44.30
46412;BME280;32113;42.012;24.870;2023-03-23T12:52:24;99050.50;;;18.24;44.47
46412;BME280;32113;42.012;24.870;2023-03-23T12:57:45;99050.81;;;18.37;44.11
46412;BME280;32113;42.012;24.870;2023-03-23T13:05:57;99045.22;;;18.46;43.99
46412;BME280;32113;42.012;24.870;2023-03-23T13:08:30;99045.16;;;18.48;43.47
46412;BME280;32113;42.012;24.870;2023-03-23T13:11:02;99041.66;;;18.49;43.79
46412;BME280;32113;42.012;24.870;2023-03-23T13:13:45;99042.31;;;18.33;43.67
46412;BME280;32113;42.012;24.870;2023-03-23T13:16:25;99040.91;;;18.26;43.90
46412;BME280;32113;42.012;24.870;2023-03-23T13:19:08;99043.16;;;17.91;44.40
46412;BME280;32113;42.012;24.870;2023-03-23T13:22:07;99053.31;;;17.75;45.04
46412;BME280;32113;42.012;24.870;2023-03-23T13:24:39;99044.34;;;17.83;44.77
46412;BME280;32113;42.012;24.870;2023-03-23T13:27:08;99048.41;;;17.89;44.57
46412;BME280;32113;42.012;24.870;2023-03-23T13:29:43;99048.78;;;18.02;44.07
46412;BME280;32113;42.012;24.870;2023-03-23T13:32:16;99046.59;;;18.14;43.71
46412;BME280;32113;42.012;24.870;2023-03-23T13:34:43;99052.47;;;17.96;43.68
46412;BME280;32113;42.012;24.870;2023-03-23T13:37:23;99054.59;;;18.09;43.96
46412;BME280;32113;42.012;24.870;2023-03-23T13:39:54;99049.47;;;18.28;43.07
46412;BME280;32113;42.012;24.870;2023-03-23T13:42:26;99052.94;;;18.48;42.24
46412;BME280;32113;42.012;24.870;2023-03-23T13:45:04;99048.22;;;18.58;42.35
46412;BME280;32113;42.012;24.870;2023-03-23T13:47:37;99044.22;;;18.70;42.08
46412;BME280;32113;42.012;24.870;2023-03-23T13:52:56;99040.84;;;18.68;41.30
46412;BME280;32113;42.012;24.870;2023-03-23T13:55:39;99044.22;;;18.70;41.64
46412;BME280;32113;42.012;24.870;2023-03-23T14:03:17;99050.94;;;18.55;41.23
46412;BME280;32113;42.012;24.870;2023-03-23T14:08:12;99043.47;;;18.47;40.91
46412;BME280;32113;42.012;24.870;2023-03-23T14:11:12;99041.53;;;18.52;41.38
46412;BME280;32113;42.012;24.870;2023-03-23T14:18:57;99044.28;;;18.89;40.90
46412;BME280;32113;42.012;24.870;2023-03-23T14:21:39;99054.31;;;18.97;40.24
46412;BME280;32113;42.012;24.870;2023-03-23T14:24:26;99047.88;;;19.06;40.01
46412;BME280;32113;42.012;24.870;2023-03-23T14:27:19;99060.53;;;19.13;39.73
46412;BME280;32113;42.012;24.870;2023-03-23T14:29:45;99058.19;;;19.26;39.37
46412;BME280;32113;42.012;24.870;2023-03-23T14:32:18;99058.75;;;19.33;39.48
46412;BME280;32113;42.012;24.870;2023-03-23T14:34:50;99051.72;;;19.35;38.68
46412;BME280;32113;42.012;24.870;2023-03-23T14:37:16;99052.78;;;19.31;38.65
46412;BME280;32113;42.012;24.870;2023-03-23T14:39:48;99057.44;;;18.84;39.78
46412;BME280;32113;42.012;24.870;2023-03-23T14:42:16;99054.09;;;18.82;39.98